createdAt,value
2019-03-12T00:00:49.996Z,94388.38
2019-03-12T00:03:16.638Z,94389.08
2019-03-12T00:05:43.272Z,94391.72
2019-03-12T00:08:09.931Z,94401.25
2019-03-12T00:10:36.580Z,94412.38
2019-03-12T00:13:03.271Z,94416.81
2019-03-12T00:15:29.960Z,94409.41
2019-03-12T00:17:56.609Z,94412.03
2019-03-12T00:20:23.244Z,94423.91
2019-03-12T00:22:49.897Z,94423.34
2019-03-12T00:25:16.542Z,94420.45
2019-03-12T00:27:43.351Z,94415.03
2019-03-12T00:30:09.997Z,94425.89
2019-03-12T00:32:36.685Z,94432.92
2019-03-12T00:35:03.320Z,94428.30
2019-03-12T00:37:30.013Z,94422.17
2019-03-12T00:39:56.657Z,94426.16
2019-03-12T00:42:23.311Z,94423.08
2019-03-12T00:44:49.995Z,94420.86
2019-03-12T00:47:16.629Z,94421.13
2019-03-12T00:49:43.354Z,94409.59
2019-03-12T00:52:09.946Z,94429.42
2019-03-12T00:54:36.626Z,94427.59
2019-03-12T00:57:03.306Z,94433.38
2019-03-12T00:59:29.971Z,94432.95
2019-03-12T01:01:56.617Z,94427.96
2019-03-12T01:04:23.248Z,94431.86
2019-03-12T01:06:49.916Z,94424.77
2019-03-12T01:09:16.597Z,94424.50
2019-03-12T01:11:43.247Z,94426.46
2019-03-12T01:14:09.928Z,94422.84
2019-03-12T01:16:36.579Z,94419.31
2019-03-12T01:19:03.217Z,94410.59
2019-03-12T01:21:29.922Z,94410.59
2019-03-12T01:23:56.566Z,94412.02
2019-03-12T01:26:23.233Z,94410.97
2019-03-12T01:28:49.884Z,94416.46
2019-03-12T01:31:16.551Z,94419.95
2019-03-12T01:33:43.217Z,94418.30
2019-03-12T01:36:09.860Z,94417.84
2019-03-12T01:38:36.557Z,94415.23
2019-03-12T01:41:03.190Z,94412.15
2019-03-12T01:43:29.870Z,94422.66
2019-03-12T01:45:56.503Z,94418.94
2019-03-12T01:48:23.242Z,94424.43
2019-03-12T01:50:49.802Z,94439.34
2019-03-12T01:53:16.500Z,94439.72
2019-03-12T01:55:43.227Z,94444.27
2019-03-12T01:58:09.861Z,94442.43
2019-03-12T02:00:36.551Z,94455.09
2019-03-12T02:03:03.204Z,94456.59
2019-03-12T02:05:29.843Z,94467.80
2019-03-12T02:07:56.616Z,94469.91
2019-03-12T02:10:23.263Z,94466.11
2019-03-12T02:12:49.895Z,94466.52
2019-03-12T02:15:16.565Z,94473.09
2019-03-12T02:17:43.205Z,94484.97
2019-03-12T02:20:09.851Z,94478.51
2019-03-12T02:22:36.508Z,94463.66
2019-03-12T02:25:03.153Z,94469.64
2019-03-12T02:27:29.860Z,94467.23
2019-03-12T02:29:56.509Z,94467.00
2019-03-12T02:32:23.158Z,94458.22
2019-03-12T02:34:49.800Z,94458.48
2019-03-12T02:37:16.438Z,94462.27
2019-03-12T02:39:43.112Z,94464.34
2019-03-12T02:42:12.648Z,94464.23
2019-03-12T02:44:36.406Z,94469.80
2019-03-12T02:47:03.092Z,94460.39
2019-03-12T02:49:29.779Z,94465.91
2019-03-12T02:51:56.421Z,94456.60
2019-03-12T02:54:23.064Z,94457.77
2019-03-12T02:56:49.764Z,94449.12
2019-03-12T02:59:16.370Z,94460.95
2019-03-12T03:01:43.056Z,94461.11
2019-03-12T03:04:09.790Z,94451.41
2019-03-12T03:06:36.460Z,94457.09
2019-03-12T03:09:03.074Z,94472.00
2019-03-12T03:11:29.762Z,94473.47
2019-03-12T03:13:56.409Z,94468.39
2019-03-12T03:16:24.432Z,94463.84
2019-03-12T03:18:49.689Z,94470.31
2019-03-12T03:21:16.334Z,94482.83
2019-03-12T03:23:43.045Z,94477.00
2019-03-12T03:26:09.678Z,94477.27
2019-03-12T03:28:36.337Z,94474.22
2019-03-12T03:31:02.981Z,94483.47
2019-03-12T03:33:29.636Z,94479.37
2019-03-12T03:35:56.492Z,94483.61
2019-03-12T03:38:23.030Z,94485.00
2019-03-12T03:40:49.673Z,94476.96
2019-03-12T03:43:16.323Z,94485.04
2019-03-12T03:45:42.970Z,94482.67
2019-03-12T03:48:09.616Z,94489.73
2019-03-12T03:50:36.565Z,94488.73
2019-03-12T03:53:03.121Z,94490.87
2019-03-12T03:55:29.777Z,94481.88
2019-03-12T03:57:56.445Z,94476.36
2019-03-12T04:00:23.092Z,94487.78
2019-03-12T04:02:49.821Z,94487.70
2019-03-12T04:05:16.594Z,94480.12
2019-03-12T04:07:43.203Z,94476.96
2019-03-12T04:10:09.866Z,94491.09
2019-03-12T04:12:36.519Z,94503.64
2019-03-12T04:15:03.168Z,94519.06
2019-03-12T04:17:29.806Z,94520.05
2019-03-12T04:19:56.462Z,94531.88
2019-03-12T04:22:23.097Z,94538.03
2019-03-12T04:24:49.794Z,94538.44
2019-03-12T04:27:16.429Z,94541.05
2019-03-12T04:29:43.085Z,94544.83
2019-03-12T04:32:09.764Z,94548.43
2019-03-12T04:34:36.447Z,94550.81
2019-03-12T04:37:03.138Z,94543.86
2019-03-12T04:39:29.786Z,94536.44
2019-03-12T04:41:56.439Z,94546.77
2019-03-12T04:44:23.127Z,94547.59
2019-03-12T04:46:49.771Z,94561.92
2019-03-12T04:49:16.457Z,94576.41
2019-03-12T04:51:43.096Z,94575.49
2019-03-12T04:54:09.761Z,94572.08
2019-03-12T04:56:36.399Z,94581.84
2019-03-12T04:59:03.084Z,94591.63
2019-03-12T05:01:29.724Z,94607.60
2019-03-12T05:03:56.364Z,94605.36
2019-03-12T05:06:23.014Z,94615.80
2019-03-12T05:08:49.661Z,94609.91
2019-03-12T05:11:16.315Z,94613.97
2019-03-12T05:13:42.963Z,94627.27
2019-03-12T05:16:09.600Z,94625.19
2019-03-12T05:18:36.292Z,94622.50
2019-03-12T05:21:02.978Z,94629.56
2019-03-12T05:23:29.616Z,94634.91
2019-03-12T05:25:56.305Z,94630.64
2019-03-12T05:28:22.966Z,94626.96
2019-03-12T05:30:49.623Z,94628.66
2019-03-12T05:33:16.317Z,94613.52
2019-03-12T05:35:42.956Z,94616.04
2019-03-12T05:38:09.604Z,94624.94
2019-03-12T05:40:36.454Z,94639.13
2019-03-12T05:43:03.097Z,94639.66
2019-03-12T05:45:29.741Z,94642.47
2019-03-12T05:47:56.419Z,94648.23
2019-03-12T05:50:23.056Z,94650.87
2019-03-12T05:52:49.796Z,94661.67
2019-03-12T05:55:16.382Z,94658.43
2019-03-12T05:57:43.052Z,94664.02
2019-03-12T06:00:09.698Z,94663.70
2019-03-12T06:02:36.351Z,94667.12
2019-03-12T06:05:02.990Z,94670.02
2019-03-12T06:07:29.722Z,94682.48
2019-03-12T06:09:56.371Z,94681.06
2019-03-12T06:12:23.030Z,94686.44
2019-03-12T06:14:49.681Z,94690.61
2019-03-12T06:17:16.388Z,94697.90
2019-03-12T06:19:43.034Z,94702.82
2019-03-12T06:22:11.660Z,94715.83
2019-03-12T06:24:36.367Z,94716.84
2019-03-12T06:27:03.075Z,94700.16
2019-03-12T06:29:29.717Z,94707.80
2019-03-12T06:31:56.374Z,94718.59
2019-03-12T06:34:25.094Z,94719.12
2019-03-12T06:36:49.675Z,94717.47
2019-03-12T06:39:16.374Z,94721.46
2019-03-12T06:41:43.010Z,94726.77
2019-03-12T06:44:09.704Z,94722.50
2019-03-12T06:46:36.400Z,94713.84
2019-03-12T06:49:03.058Z,94723.05
2019-03-12T06:51:29.797Z,94728.26
2019-03-12T06:53:56.433Z,94728.83
2019-03-12T06:56:23.536Z,94723.35
2019-03-12T06:58:50.209Z,94729.09
2019-03-12T07:01:17.023Z,94730.09
2019-03-12T07:03:43.716Z,94731.78
2019-03-12T07:06:10.365Z,94735.27
2019-03-12T07:08:37.130Z,94737.47
2019-03-12T07:11:03.880Z,94729.90
2019-03-12T07:13:30.575Z,94728.56
2019-03-12T07:15:57.226Z,94730.71
2019-03-12T07:18:23.866Z,94732.01
2019-03-12T07:20:50.639Z,94724.19
2019-03-12T07:23:17.279Z,94717.69
2019-03-12T07:34:20.152Z,94710.52
2019-03-12T07:36:46.811Z,94717.80
2019-03-12T07:39:13.462Z,94712.94
2019-03-12T07:41:40.153Z,94717.39
2019-03-12T07:44:06.824Z,94720.05
2019-03-12T07:46:33.509Z,94719.02
2019-03-12T07:49:00.184Z,94721.16
2019-03-12T07:51:26.846Z,94725.50
2019-03-12T07:53:59.424Z,94730.47
2019-03-12T07:56:20.154Z,94716.88
2019-03-12T07:58:46.804Z,94727.44
2019-03-12T08:01:13.506Z,94720.65
2019-03-12T08:03:40.240Z,94704.91
2019-03-12T08:06:06.905Z,94733.77
2019-03-12T08:08:33.595Z,94728.16
2019-03-12T08:11:00.245Z,94739.14
2019-03-12T08:13:27.144Z,94743.78
2019-03-12T08:15:53.985Z,94747.58
2019-03-12T08:18:20.633Z,94736.06
2019-03-12T08:20:47.302Z,94741.86
2019-03-12T08:23:14.010Z,94742.87
2019-03-12T08:25:43.707Z,94742.86
2019-03-12T08:28:07.432Z,94734.99
2019-03-12T08:30:35.962Z,94738.08
2019-03-12T08:33:02.656Z,94732.93
2019-03-12T08:35:29.352Z,94733.57
2019-03-12T08:37:56.079Z,94728.23
2019-03-12T08:40:22.921Z,94735.98
2019-03-12T08:42:54.690Z,94740.02
2019-03-12T08:45:17.591Z,94744.98
2019-03-12T08:47:44.281Z,94741.11
2019-03-12T08:50:10.968Z,94743.11
2019-03-12T08:52:37.643Z,94738.55
2019-03-12T08:55:04.501Z,94739.75
2019-03-12T08:57:31.117Z,94736.97
2019-03-12T08:59:57.958Z,94732.38
2019-03-12T09:02:24.636Z,94730.46
2019-03-12T09:04:51.313Z,94728.24
2019-03-12T09:07:22.602Z,94734.15
2019-03-12T09:09:49.436Z,94737.98
2019-03-12T09:12:16.070Z,94738.17
2019-03-12T09:14:42.791Z,94740.81
2019-03-12T09:17:09.438Z,94742.84
2019-03-12T09:19:36.146Z,94747.73
2019-03-12T09:22:02.799Z,94733.44
2019-03-12T09:24:29.458Z,94745.52
2019-03-12T09:26:56.104Z,94745.41
2019-03-12T09:29:22.798Z,94751.31
2019-03-12T09:31:49.565Z,94743.89
2019-03-12T09:34:16.207Z,94754.29
2019-03-12T09:36:42.873Z,94768.78
2019-03-12T09:39:09.519Z,94774.14
2019-03-12T09:41:36.306Z,94781.06
2019-03-12T09:44:02.965Z,94783.22
2019-03-12T09:46:29.698Z,94772.70
2019-03-12T09:48:56.342Z,94775.09
2019-03-12T09:51:23.009Z,94767.16
2019-03-12T09:53:49.651Z,94766.78
2019-03-12T09:56:16.303Z,94769.53
2019-03-12T09:58:42.995Z,94767.01
2019-03-12T10:01:09.646Z,94765.97
2019-03-12T10:03:36.342Z,94786.27
2019-03-12T10:06:03.020Z,94784.29
2019-03-12T10:08:29.716Z,94778.32
2019-03-12T10:10:56.368Z,94785.22
2019-03-12T10:13:23.033Z,94788.91
2019-03-12T10:15:49.713Z,94785.08
2019-03-12T10:18:16.412Z,94779.42
2019-03-12T10:20:43.229Z,94787.58
2019-03-12T10:23:09.978Z,94790.94
2019-03-12T10:25:36.633Z,94792.84
2019-03-12T10:28:03.321Z,94790.94
2019-03-12T10:30:29.974Z,94795.14
2019-03-12T10:32:56.651Z,94792.84
2019-03-12T10:35:23.345Z,94785.81
2019-03-12T10:37:50.063Z,94785.34
2019-03-12T10:40:16.788Z,94784.33
2019-03-12T10:42:43.517Z,94791.47
2019-03-12T10:45:10.156Z,94795.97
2019-03-12T10:47:36.807Z,94791.43
2019-03-12T10:50:03.537Z,94794.81
2019-03-12T10:52:30.172Z,94799.69
2019-03-12T10:54:56.973Z,94798.59
2019-03-12T10:57:23.632Z,94792.35
2019-03-12T10:59:50.289Z,94794.63
2019-03-12T11:02:16.961Z,94800.52
2019-03-12T11:04:43.624Z,94797.10
2019-03-12T11:07:16.423Z,94794.60
2019-03-12T11:09:36.921Z,94794.92
2019-03-12T11:12:03.756Z,94801.91
2019-03-12T11:14:30.416Z,94799.01
2019-03-12T11:16:57.125Z,94794.03
2019-03-12T11:19:23.755Z,94798.50
2019-03-12T11:21:50.467Z,94802.08
2019-03-12T11:24:17.235Z,94797.59
2019-03-12T11:26:43.964Z,94790.98
2019-03-12T11:29:10.616Z,94800.16
2019-03-12T11:31:37.368Z,94799.75
2019-03-12T11:34:03.958Z,94794.45
2019-03-12T11:36:30.640Z,94783.88
2019-03-12T11:38:57.352Z,94783.77
2019-03-12T11:41:24.007Z,94776.35
2019-03-12T11:43:50.702Z,94768.30
2019-03-12T11:46:17.393Z,94757.53
2019-03-12T11:48:45.077Z,94765.02
2019-03-12T11:51:11.805Z,94758.05
2019-03-12T11:53:38.499Z,94763.44
2019-03-12T11:56:05.276Z,94758.55
2019-03-12T11:58:31.978Z,94762.69
2019-03-12T12:00:58.785Z,94765.36
2019-03-12T12:03:25.437Z,94775.56
2019-03-12T12:05:52.131Z,94773.61
2019-03-12T12:08:18.878Z,94783.61
2019-03-12T12:10:45.616Z,94794.42
2019-03-12T12:13:12.374Z,94796.87
2019-03-12T12:15:39.033Z,94809.38
2019-03-12T12:18:05.695Z,94812.27
2019-03-12T12:20:32.455Z,94812.55
2019-03-12T12:22:59.153Z,94805.28
2019-03-12T12:25:25.866Z,94805.39
2019-03-12T12:27:52.559Z,94804.55
2019-03-12T12:30:19.211Z,94808.73
2019-03-12T12:32:45.963Z,94812.48
2019-03-12T12:35:12.614Z,94807.62
2019-03-12T12:37:39.263Z,94788.66
2019-03-12T12:40:07.102Z,94798.91
2019-03-12T12:42:36.061Z,94803.37
2019-03-12T12:45:00.451Z,94793.63
2019-03-12T12:47:27.091Z,94791.26
2019-03-12T12:49:53.952Z,94792.02
2019-03-12T12:52:20.557Z,94794.80
2019-03-12T12:54:47.291Z,94798.27
2019-03-12T12:57:13.953Z,94786.70
2019-03-12T12:59:40.658Z,94798.00
2019-03-12T13:02:07.301Z,94797.83
2019-03-12T13:04:33.964Z,94796.72
2019-03-12T13:07:03.274Z,94799.94
2019-03-12T13:09:29.973Z,94805.52
2019-03-12T13:11:56.687Z,94804.86
2019-03-12T13:14:23.410Z,94809.95
2019-03-12T13:16:50.136Z,94806.67
2019-03-12T13:19:16.813Z,94793.19
2019-03-12T13:21:46.339Z,94798.34
2019-03-12T13:24:12.997Z,94793.83
2019-03-12T13:26:39.684Z,94795.94
2019-03-12T13:29:06.350Z,94803.27
2019-03-12T13:31:33.038Z,94798.78
2019-03-12T13:33:59.727Z,94797.66
2019-03-12T13:36:26.382Z,94792.81
2019-03-12T13:38:53.043Z,94796.94
2019-03-12T13:41:19.791Z,94804.20
2019-03-12T13:43:46.569Z,94799.41
2019-03-12T13:46:13.189Z,94800.61
2019-03-12T13:48:39.927Z,94804.05
2019-03-12T13:51:09.237Z,94792.91
2019-03-12T13:53:35.984Z,94803.47
2019-03-12T13:56:02.700Z,94805.28
2019-03-12T13:58:29.346Z,94808.16
2019-03-12T14:00:58.565Z,94804.55
2019-03-12T14:03:25.219Z,94824.23
2019-03-12T14:05:51.910Z,94810.61
2019-03-12T14:08:18.761Z,94813.70
2019-03-12T14:10:45.486Z,94815.94
2019-03-12T14:13:12.196Z,94815.73
2019-03-12T14:15:38.912Z,94817.66
2019-03-12T14:18:05.581Z,94816.03
2019-03-12T14:20:32.242Z,94812.25
2019-03-12T14:22:58.890Z,94814.21
2019-03-12T14:25:25.575Z,94811.44
2019-03-12T14:27:52.259Z,94805.33
2019-03-12T14:30:18.914Z,94798.01
2019-03-12T14:32:45.653Z,94806.56
2019-03-12T14:35:12.372Z,94812.73
2019-03-12T14:37:39.032Z,94815.88
2019-03-12T14:40:05.727Z,94819.34
2019-03-12T14:42:32.462Z,94818.07
2019-03-12T14:44:59.122Z,94830.72
2019-03-12T14:47:25.771Z,94826.75
2019-03-12T14:49:52.415Z,94832.68
2019-03-12T14:52:19.151Z,94827.38
2019-03-12T14:54:45.832Z,94840.05
2019-03-12T14:57:12.595Z,94843.59
2019-03-12T14:59:39.287Z,94840.12
2019-03-12T15:02:05.972Z,94839.55
2019-03-12T15:04:32.704Z,94839.90
2019-03-12T15:06:59.391Z,94849.55
2019-03-12T15:09:26.056Z,94842.84
2019-03-12T15:11:52.737Z,94844.52
2019-03-12T15:14:19.502Z,94839.71
2019-03-12T15:16:46.174Z,94844.58
2019-03-12T15:19:12.835Z,94836.11
2019-03-12T15:21:39.508Z,94826.66
2019-03-12T15:24:06.162Z,94838.22
2019-03-12T15:26:32.867Z,94836.81
2019-03-12T15:28:59.522Z,94838.95
2019-03-12T15:31:27.399Z,94846.55
2019-03-12T15:33:54.072Z,94842.94
2019-03-12T15:36:20.732Z,94835.70
2019-03-12T15:38:47.423Z,94834.37
2019-03-12T15:41:14.080Z,94839.04
2019-03-12T15:43:40.784Z,94846.13
2019-03-12T15:46:07.453Z,94846.05
2019-03-12T15:48:34.090Z,94845.83
2019-03-12T15:51:00.829Z,94846.27
2019-03-12T15:53:27.414Z,94841.39
2019-03-12T15:55:55.863Z,94845.12
2019-03-12T15:58:20.761Z,94844.92
2019-03-12T16:00:47.449Z,94835.13
2019-03-12T16:03:14.088Z,94852.30
2019-03-12T16:05:40.746Z,94856.97
2019-03-12T16:08:07.394Z,94858.41
2019-03-12T16:10:34.053Z,94862.79
2019-03-12T16:13:00.842Z,94869.92
2019-03-12T16:15:27.483Z,94868.73
2019-03-12T16:17:54.134Z,94871.20
2019-03-12T16:20:20.775Z,94876.04
2019-03-12T16:22:47.518Z,94873.22
2019-03-12T16:25:14.173Z,94878.26
2019-03-12T16:27:40.846Z,94889.08
2019-03-12T16:30:07.480Z,94888.96
2019-03-12T16:32:35.364Z,94891.75
2019-03-12T16:35:00.774Z,94897.52
2019-03-12T16:37:27.425Z,94895.92
2019-03-12T16:39:54.066Z,94900.91
2019-03-12T16:42:20.713Z,94909.89
2019-03-12T16:44:47.376Z,94913.95
2019-03-12T16:47:14.012Z,94915.23
2019-03-12T16:49:40.705Z,94923.96
2019-03-12T16:52:07.385Z,94926.74
2019-03-12T16:54:34.020Z,94934.69
2019-03-12T16:57:00.689Z,94945.45
2019-03-12T16:59:27.342Z,94945.80
2019-03-12T17:01:53.986Z,94945.07
2019-03-12T17:04:20.661Z,94950.46
2019-03-12T17:06:47.303Z,94955.88
2019-03-12T17:09:13.990Z,94960.47
2019-03-12T17:11:40.631Z,94961.10
2019-03-12T17:14:07.419Z,94968.81
2019-03-12T17:16:33.981Z,94965.94
2019-03-12T17:19:00.637Z,94966.03
2019-03-12T17:21:27.315Z,94971.07
2019-03-12T17:23:55.300Z,94976.47
2019-03-12T17:26:20.639Z,94979.94
2019-03-12T17:28:47.308Z,94981.59
2019-03-12T17:31:13.954Z,94977.03
2019-03-12T17:33:40.632Z,94980.13
2019-03-12T17:36:07.273Z,94981.46
2019-03-12T17:38:46.058Z,94985.87
2019-03-12T17:41:00.628Z,94992.27
2019-03-12T17:43:27.251Z,94996.32
2019-03-12T17:45:53.939Z,94999.02
2019-03-12T17:48:20.582Z,95003.19
2019-03-12T17:50:47.270Z,95004.28
2019-03-12T17:53:14.017Z,95012.81
2019-03-12T17:55:40.719Z,95012.36
2019-03-12T17:58:07.447Z,95010.13
2019-03-12T18:00:34.110Z,95019.88
2019-03-12T18:03:00.817Z,95024.86
2019-03-12T18:05:27.406Z,95028.61
2019-03-12T18:07:54.134Z,95025.38
2019-03-12T18:10:20.781Z,95020.50
2019-03-12T18:12:47.589Z,95019.91
2019-03-12T18:15:14.144Z,95018.91
2019-03-12T18:17:40.796Z,95026.16
2019-03-12T18:20:07.441Z,95021.88
2019-03-12T18:22:34.214Z,95025.73
2019-03-12T18:25:00.820Z,95036.39
2019-03-12T18:27:27.457Z,95040.52
2019-03-12T18:29:54.153Z,95042.97
2019-03-12T18:32:20.829Z,95056.69
2019-03-12T18:34:47.476Z,95054.73
2019-03-12T18:37:14.266Z,95058.50
2019-03-12T18:39:40.907Z,95057.58
2019-03-12T18:42:07.541Z,95055.47
2019-03-12T18:44:34.192Z,95059.18
2019-03-12T18:47:00.838Z,95060.30
2019-03-12T18:49:27.487Z,95051.58
2019-03-12T18:51:54.126Z,95051.88
2019-03-12T18:54:20.778Z,95052.88
2019-03-12T18:56:47.422Z,95057.19
2019-03-12T18:59:14.083Z,95061.23
2019-03-12T19:01:40.756Z,95057.48
2019-03-12T19:04:07.411Z,95068.90
2019-03-12T19:06:34.088Z,95066.62
2019-03-12T19:09:00.723Z,95068.27
2019-03-12T19:11:27.367Z,95079.98
2019-03-12T19:13:54.004Z,95079.87
2019-03-12T19:16:20.687Z,95082.65
2019-03-12T19:18:47.335Z,95083.53
2019-03-12T19:21:14.015Z,95089.34
2019-03-12T19:23:40.655Z,95090.36
2019-03-12T19:26:07.301Z,95103.25
2019-03-12T19:28:34.041Z,95101.69
2019-03-12T19:31:00.740Z,95108.55
2019-03-12T19:33:27.383Z,95108.64
2019-03-12T19:35:54.032Z,95109.56
2019-03-12T19:38:20.676Z,95105.92
2019-03-12T19:40:47.370Z,95118.67
2019-03-12T19:43:14.067Z,95112.72
2019-03-12T19:45:40.707Z,95118.75
2019-03-12T19:48:07.459Z,95122.67
2019-03-12T19:50:34.116Z,95120.69
2019-03-12T19:53:00.791Z,95123.59
2019-03-12T19:55:27.442Z,95112.98
2019-03-12T19:57:54.153Z,95123.73
2019-03-12T20:00:20.777Z,95124.70
2019-03-12T20:02:47.421Z,95119.45
2019-03-12T20:05:14.073Z,95129.67
2019-03-12T20:07:40.713Z,95125.70
2019-03-12T20:10:07.356Z,95129.94
2019-03-12T20:12:34.009Z,95138.01
2019-03-12T20:15:00.712Z,95135.23
2019-03-12T20:17:27.337Z,95142.06
2019-03-12T20:19:54.222Z,95143.83
2019-03-12T20:22:20.682Z,95145.02
2019-03-12T20:24:47.330Z,95149.78
2019-03-12T20:27:13.981Z,95138.27
2019-03-12T20:29:40.626Z,95139.03
2019-03-12T20:32:07.273Z,95144.59
2019-03-12T20:34:33.922Z,95141.44
2019-03-12T20:37:00.721Z,95143.20
2019-03-12T20:39:27.374Z,95151.21
2019-03-12T20:41:54.013Z,95147.38
2019-03-12T20:44:20.671Z,95147.52
2019-03-12T20:46:47.322Z,95139.55
2019-03-12T20:49:13.963Z,95141.81
2019-03-12T20:51:40.640Z,95147.15
2019-03-12T20:54:07.364Z,95148.81
2019-03-12T20:56:33.929Z,95140.69
2019-03-12T20:59:00.606Z,95148.64
2019-03-12T21:01:27.981Z,95149.28
2019-03-12T21:03:53.917Z,95150.71
2019-03-12T21:06:20.557Z,95148.52
2019-03-12T21:08:50.183Z,95146.92
2019-03-12T21:11:16.824Z,95144.27
2019-03-12T21:13:43.509Z,95140.84
2019-03-12T21:16:10.155Z,95133.91
2019-03-12T21:18:36.891Z,95134.33
2019-03-12T21:21:03.522Z,95129.78
2019-03-12T21:23:30.184Z,95139.39
2019-03-12T21:25:56.863Z,95135.34
2019-03-12T21:28:23.501Z,95136.35
2019-03-12T21:30:50.143Z,95124.86
2019-03-12T21:33:16.790Z,95118.20
2019-03-12T21:35:43.431Z,95122.23
2019-03-12T21:38:10.109Z,95132.64
2019-03-12T21:40:36.772Z,95128.31
2019-03-12T21:43:03.417Z,95111.30
2019-03-12T21:45:30.047Z,95112.42
2019-03-12T21:47:56.795Z,95113.20
2019-03-12T21:50:24.368Z,95108.13
2019-03-12T21:52:50.230Z,95116.44
2019-03-12T21:55:16.910Z,95119.75
2019-03-12T21:57:43.548Z,95117.19
2019-03-12T22:00:10.220Z,95114.75
2019-03-12T22:02:36.866Z,95113.31
2019-03-12T22:05:03.497Z,95112.64
2019-03-12T22:07:30.149Z,95115.59
2019-03-12T22:09:56.839Z,95113.23
2019-03-12T22:12:23.480Z,95114.87
2019-03-12T22:14:50.156Z,95108.22
2019-03-12T22:17:16.835Z,95097.98
2019-03-12T22:19:46.373Z,95096.48
2019-03-12T22:22:13.060Z,95089.91
2019-03-12T22:24:39.702Z,95096.10
2019-03-12T22:27:06.351Z,95100.95
2019-03-12T22:29:32.983Z,95099.30
2019-03-12T22:31:59.736Z,95103.21
2019-03-12T22:34:26.379Z,95103.47
2019-03-12T22:36:53.012Z,95100.69
2019-03-12T22:39:19.667Z,95108.39
2019-03-12T22:41:46.303Z,95105.23
2019-03-12T22:44:12.988Z,95098.16
2019-03-12T22:46:39.684Z,95098.55
2019-03-12T22:49:06.270Z,95094.75
2019-03-12T22:51:32.921Z,95098.20
2019-03-12T22:53:59.556Z,95098.25
2019-03-12T22:56:26.248Z,95095.30
2019-03-12T22:58:52.889Z,95095.59
2019-03-12T23:01:19.559Z,95096.18
2019-03-12T23:03:46.211Z,95097.31
2019-03-12T23:06:12.978Z,95100.05
2019-03-12T23:08:39.535Z,95096.78
2019-03-12T23:11:06.228Z,95095.64
2019-03-12T23:13:32.873Z,95095.13
2019-03-12T23:15:59.509Z,95097.28
2019-03-12T23:18:26.195Z,95083.13
2019-03-12T23:20:52.844Z,95083.26
2019-03-12T23:23:19.532Z,95082.38
2019-03-12T23:25:46.162Z,95083.02
2019-03-12T23:28:12.801Z,95072.06
2019-03-12T23:30:39.482Z,95070.55
2019-03-12T23:33:06.115Z,95074.72
2019-03-12T23:35:32.769Z,95068.69
2019-03-12T23:37:59.406Z,95069.04
2019-03-12T23:40:26.084Z,95068.45
2019-03-12T23:42:52.724Z,95068.69
2019-03-12T23:45:19.405Z,95069.45
2019-03-12T23:47:46.040Z,95075.09
2019-03-12T23:50:12.821Z,95079.06
2019-03-12T23:52:42.024Z,95078.48
2019-03-12T23:55:08.674Z,95079.06
2019-03-12T23:57:35.346Z,95079.28
